createdAt,value
2023-02-17T00:01:37.356Z,100.90
2023-02-17T00:04:09.578Z,104.40
2023-02-17T00:06:41.847Z,102.60
2023-02-17T00:09:14.181Z,103.00
2023-02-17T00:11:46.396Z,96.50
2023-02-17T00:14:19.084Z,98.40
2023-02-17T00:16:51.596Z,101.20
2023-02-17T00:19:27.635Z,96.80
2023-02-17T00:22:02.398Z,102.10
2023-02-17T00:24:36.007Z,99.10
2023-02-17T00:27:08.597Z,99.50
2023-02-17T00:29:41.043Z,99.90
2023-02-17T00:32:14.582Z,90.40
2023-02-17T00:34:48.223Z,96.90
2023-02-17T00:37:21.024Z,94.70
2023-02-17T00:39:53.186Z,91.90
2023-02-17T00:42:28.642Z,99.00
2023-02-17T00:45:04.828Z,96.40
2023-02-17T00:47:37.687Z,102.90
2023-02-17T00:50:14.765Z,92.90
2023-02-17T00:52:53.604Z,93.40
2023-02-17T00:55:26.821Z,92.30
2023-02-17T00:57:59.152Z,102.50
2023-02-17T01:00:34.935Z,88.60
2023-02-17T01:03:07.842Z,78.90
2023-02-17T01:05:45.456Z,90.10
2023-02-17T01:08:26.538Z,99.30
2023-02-17T01:11:02.116Z,95.30
2023-02-17T01:13:38.853Z,105.60
2023-02-17T01:16:21.901Z,110.10
2023-02-17T01:18:54.919Z,108.50
2023-02-17T01:21:32.849Z,104.30
2023-02-17T01:24:10.392Z,124.00
2023-02-17T01:26:47.173Z,110.90
2023-02-17T01:29:19.841Z,108.60
2023-02-17T01:31:55.381Z,105.00
2023-02-17T01:34:28.867Z,109.60
2023-02-17T01:37:01.662Z,115.60
2023-02-17T01:39:34.189Z,109.50
2023-02-17T01:42:14.602Z,116.90
2023-02-17T01:45:33.434Z,103.40
2023-02-17T01:48:12.051Z,111.50
2023-02-17T01:54:05.226Z,109.40
2023-02-17T01:56:39.966Z,105.40
2023-02-17T01:59:23.260Z,89.50
2023-02-17T02:02:04.466Z,103.00
2023-02-17T02:04:43.560Z,114.90
2023-02-17T02:07:23.000Z,106.20
2023-02-17T02:09:58.203Z,108.90
2023-02-17T02:12:36.026Z,102.70
2023-02-17T02:15:14.599Z,111.90
2023-02-17T02:18:03.398Z,111.60
2023-02-17T02:21:01.912Z,105.70
2023-02-17T02:24:02.877Z,110.40
2023-02-17T02:27:28.361Z,107.40
2023-02-17T02:30:26.641Z,105.60
2023-02-17T02:33:18.439Z,103.20
2023-02-17T02:36:08.500Z,108.50
2023-02-17T02:38:52.929Z,115.20
2023-02-17T02:41:30.686Z,109.70
2023-02-17T02:44:04.205Z,94.70
2023-02-17T02:46:37.043Z,107.40
2023-02-17T02:49:11.203Z,84.30
2023-02-17T02:51:56.040Z,90.70
2023-02-17T02:54:42.239Z,103.40
2023-02-17T02:57:35.446Z,102.50
2023-02-17T03:00:31.585Z,103.10
2023-02-17T03:03:14.386Z,103.10
2023-02-17T03:05:58.017Z,101.00
2023-02-17T03:08:36.133Z,99.00
2023-02-17T03:11:08.703Z,98.40
2023-02-17T03:13:42.750Z,106.90
2023-02-17T03:16:23.816Z,103.00
2023-02-17T03:19:03.395Z,103.60
2023-02-17T03:21:44.283Z,107.80
2023-02-17T03:24:25.848Z,100.60
2023-02-17T03:26:59.482Z,106.50
2023-02-17T03:29:32.758Z,106.40
2023-02-17T03:32:09.413Z,119.80
2023-02-17T03:34:44.905Z,102.10
2023-02-17T03:37:19.124Z,99.30
2023-02-17T03:39:54.662Z,99.60
2023-02-17T03:42:28.471Z,95.80
2023-02-17T03:45:01.389Z,99.30
2023-02-17T03:47:33.986Z,105.20
2023-02-17T03:50:07.602Z,106.30
2023-02-17T03:52:40.292Z,101.60
2023-02-17T03:55:16.874Z,105.30
2023-02-17T03:57:53.242Z,91.50
2023-02-17T04:00:33.348Z,105.10
2023-02-17T04:03:07.277Z,93.30
2023-02-17T04:05:39.681Z,102.40
2023-02-17T04:08:14.750Z,94.10
2023-02-17T04:10:52.528Z,105.00
2023-02-17T04:13:25.916Z,109.40
2023-02-17T04:16:02.213Z,103.10
2023-02-17T04:18:41.678Z,91.70
2023-02-17T04:21:17.876Z,102.20
2023-02-17T04:23:50.322Z,99.40
2023-02-17T04:26:28.211Z,104.30
2023-02-17T04:29:00.926Z,102.90
2023-02-17T04:31:38.400Z,90.30
2023-02-17T04:36:46.201Z,104.10
2023-02-17T04:39:22.120Z,99.40
2023-02-17T04:41:56.867Z,105.80
2023-02-17T04:44:31.858Z,99.90
2023-02-17T04:47:09.007Z,96.40
2023-02-17T04:49:55.038Z,93.10
2023-02-17T04:52:28.777Z,99.10
2023-02-17T04:55:04.325Z,97.10
2023-02-17T04:57:39.648Z,88.50
2023-02-17T05:00:14.037Z,75.60
2023-02-17T05:02:46.585Z,171.10
2023-02-17T05:05:19.628Z,111.60
2023-02-17T05:07:52.226Z,120.10
2023-02-17T05:10:24.661Z,113.10
2023-02-17T05:12:57.097Z,86.30
2023-02-17T05:15:29.809Z,99.90
2023-02-17T05:18:09.011Z,89.70
2023-02-17T05:20:42.537Z,93.90
2023-02-17T05:23:18.193Z,89.90
2023-02-17T05:25:51.548Z,110.70
2023-02-17T05:28:28.971Z,86.50
2023-02-17T05:31:07.223Z,92.00
2023-02-17T05:33:46.884Z,86.50
2023-02-17T05:36:22.086Z,85.70
2023-02-17T05:38:55.736Z,107.50
2023-02-17T05:41:31.274Z,92.40
2023-02-17T05:44:08.561Z,95.70
2023-02-17T05:46:41.057Z,85.00
2023-02-17T05:49:13.734Z,93.40
2023-02-17T05:51:48.504Z,89.90
2023-02-17T05:54:20.929Z,98.60
2023-02-17T05:56:53.466Z,84.90
2023-02-17T05:59:27.527Z,94.00
2023-02-17T06:02:04.412Z,90.50
2023-02-17T06:04:40.334Z,85.20
2023-02-17T06:07:18.598Z,80.30
2023-02-17T06:09:51.646Z,81.00
2023-02-17T06:12:28.041Z,82.30
2023-02-17T06:15:09.147Z,77.50
2023-02-17T06:17:47.739Z,85.80
2023-02-17T06:20:20.905Z,96.20
2023-02-17T06:22:58.911Z,87.70
2023-02-17T06:25:40.690Z,85.70
2023-02-17T06:28:17.177Z,87.30
2023-02-17T06:30:52.355Z,83.00
2023-02-17T06:33:29.643Z,87.90
2023-02-17T06:36:02.104Z,87.50
2023-02-17T06:38:35.866Z,101.90
2023-02-17T06:41:11.534Z,89.20
2023-02-17T06:43:47.898Z,82.90
2023-02-17T06:46:20.306Z,93.00
2023-02-17T06:49:00.232Z,89.80
2023-02-17T06:51:32.762Z,90.30
2023-02-17T06:54:10.217Z,77.50
2023-02-17T06:56:42.804Z,85.80
2023-02-17T06:59:15.034Z,90.00
2023-02-17T07:01:49.467Z,88.50
2023-02-17T07:04:21.948Z,87.50
2023-02-17T07:06:54.193Z,92.90
2023-02-17T07:09:26.420Z,84.60
2023-02-17T07:11:58.835Z,79.40
2023-02-17T07:14:31.201Z,81.80
2023-02-17T07:17:04.577Z,87.30
2023-02-17T07:19:36.791Z,83.00
2023-02-17T07:22:09.000Z,90.80
2023-02-17T07:24:41.735Z,86.50
2023-02-17T07:27:15.181Z,73.80
2023-02-17T07:29:47.615Z,90.40
2023-02-17T07:32:21.750Z,81.60
2023-02-17T07:34:53.976Z,85.20
2023-02-17T07:37:26.270Z,74.20
2023-02-17T07:39:58.683Z,79.50
2023-02-17T07:42:31.166Z,75.40
2023-02-17T07:45:03.922Z,83.70
2023-02-17T07:47:36.301Z,88.20
2023-02-17T07:50:10.412Z,89.30
2023-02-17T07:52:42.593Z,82.20
2023-02-17T07:55:15.005Z,87.90
2023-02-17T07:57:47.768Z,87.00
2023-02-17T08:00:21.628Z,86.50
2023-02-17T08:02:53.723Z,85.20
2023-02-17T08:05:26.113Z,81.70
2023-02-17T08:08:12.081Z,75.70
2023-02-17T08:11:03.012Z,80.70
2023-02-17T08:13:35.242Z,77.70
2023-02-17T08:16:10.329Z,78.60
2023-02-17T08:18:44.174Z,77.70
2023-02-17T08:21:16.468Z,75.20
2023-02-17T08:23:48.949Z,76.60
2023-02-17T08:26:22.254Z,72.30
2023-02-17T08:28:54.722Z,78.00
2023-02-17T08:31:30.785Z,69.50
2023-02-17T08:34:06.668Z,75.90
2023-02-17T08:36:39.626Z,77.50
2023-02-17T08:39:15.276Z,65.80
2023-02-17T08:41:47.840Z,79.00
2023-02-17T08:44:22.597Z,75.70
2023-02-17T08:46:55.638Z,73.00
2023-02-17T08:49:30.139Z,64.40
2023-02-17T08:52:02.760Z,75.50
2023-02-17T08:54:35.765Z,71.20
2023-02-17T08:57:08.451Z,68.80
2023-02-17T08:59:40.794Z,63.30
2023-02-17T09:02:14.338Z,66.40
2023-02-17T09:04:49.275Z,67.30
2023-02-17T09:07:22.231Z,82.00
2023-02-17T09:09:54.844Z,69.40
2023-02-17T09:12:27.128Z,66.00
2023-02-17T09:14:59.830Z,67.80
2023-02-17T09:17:32.440Z,63.10
2023-02-17T09:20:16.271Z,61.50
2023-02-17T09:25:26.546Z,69.20
2023-02-17T09:27:59.936Z,64.80
2023-02-17T09:30:36.831Z,60.20
2023-02-17T09:33:09.219Z,68.50
2023-02-17T09:35:42.356Z,63.80
2023-02-17T09:38:14.637Z,57.00
2023-02-17T09:40:49.912Z,62.90
2023-02-17T09:43:28.487Z,64.00
2023-02-17T09:46:08.438Z,51.70
2023-02-17T09:48:42.230Z,62.10
2023-02-17T09:51:22.804Z,53.30
2023-02-17T09:56:35.498Z,55.40
2023-02-17T09:59:19.039Z,56.00
2023-02-17T10:01:53.243Z,56.30
2023-02-17T10:04:30.392Z,55.90
2023-02-17T10:07:09.297Z,52.90
2023-02-17T10:09:49.731Z,57.00
2023-02-17T10:12:26.767Z,54.70
2023-02-17T10:15:02.758Z,64.70
2023-02-17T10:17:45.597Z,66.30
2023-02-17T10:20:22.111Z,57.10
2023-02-17T10:23:00.994Z,57.90
2023-02-17T10:25:52.530Z,54.00
2023-02-17T10:28:39.385Z,57.50
2023-02-17T10:31:16.627Z,56.40
2023-02-17T10:33:55.238Z,53.00
2023-02-17T10:36:38.579Z,48.30
2023-02-17T10:39:17.288Z,41.70
2023-02-17T10:41:52.813Z,43.90
2023-02-17T10:44:26.884Z,46.50
2023-02-17T10:46:59.277Z,44.00
2023-02-17T10:49:42.777Z,45.50
2023-02-17T10:52:18.537Z,45.80
2023-02-17T10:54:59.954Z,46.00
2023-02-17T10:57:39.678Z,43.60
2023-02-17T11:00:17.796Z,49.70
2023-02-17T11:02:52.466Z,48.50
2023-02-17T11:05:27.362Z,49.20
2023-02-17T11:08:02.807Z,48.50
2023-02-17T11:10:37.448Z,46.50
2023-02-17T11:13:34.589Z,52.30
2023-02-17T11:16:22.852Z,46.40
2023-02-17T11:18:56.408Z,46.40
2023-02-17T11:21:33.279Z,46.30
2023-02-17T11:24:08.090Z,40.40
2023-02-17T11:26:43.263Z,46.80
2023-02-17T11:29:22.838Z,37.10
2023-02-17T11:32:00.281Z,41.40
2023-02-17T11:34:34.941Z,37.80
2023-02-17T11:37:21.116Z,49.50
2023-02-17T11:39:55.276Z,44.70
2023-02-17T11:42:33.628Z,42.00
2023-02-17T11:45:23.212Z,44.20
2023-02-17T11:48:09.858Z,37.20
2023-02-17T11:50:51.937Z,46.90
2023-02-17T11:53:37.091Z,42.50
2023-02-17T11:56:18.510Z,46.80
2023-02-17T11:59:08.445Z,45.10
2023-02-17T12:01:58.498Z,43.50
2023-02-17T12:04:33.436Z,44.80
2023-02-17T12:07:39.251Z,45.40
2023-02-17T12:10:23.750Z,46.70
2023-02-17T12:13:06.595Z,43.30
2023-02-17T12:15:54.368Z,44.30
2023-02-17T12:18:43.011Z,49.40
2023-02-17T12:21:27.012Z,48.10
2023-02-17T12:24:18.546Z,46.30
2023-02-17T12:26:57.058Z,49.80
2023-02-17T12:29:42.793Z,46.60
2023-02-17T12:32:28.272Z,44.60
2023-02-17T12:35:04.930Z,43.70
2023-02-17T12:37:48.486Z,41.50
2023-02-17T12:40:34.167Z,44.80
2023-02-17T12:43:19.182Z,43.80
2023-02-17T12:45:52.623Z,44.40
2023-02-17T12:48:33.949Z,37.80
2023-02-17T12:51:12.527Z,42.20
2023-02-17T12:53:50.755Z,44.10
2023-02-17T12:56:50.715Z,49.20
2023-02-17T12:59:28.045Z,46.00
2023-02-17T13:02:03.682Z,49.90
2023-02-17T13:04:37.591Z,44.50
2023-02-17T13:07:24.357Z,49.80
2023-02-17T13:09:58.624Z,47.30
2023-02-17T13:12:41.740Z,45.20
2023-02-17T13:15:36.158Z,52.20
2023-02-17T13:18:13.240Z,46.70
2023-02-17T13:20:58.290Z,46.40
2023-02-17T13:23:42.435Z,54.00
2023-02-17T13:26:32.620Z,54.40
2023-02-17T13:29:33.325Z,43.70
2023-02-17T13:34:42.512Z,44.50
2023-02-17T13:37:39.864Z,47.10
2023-02-17T13:40:38.978Z,42.00
2023-02-17T13:43:28.381Z,44.80
2023-02-17T13:46:06.227Z,49.80
2023-02-17T13:48:38.932Z,46.80
2023-02-17T13:51:29.739Z,44.30
2023-02-17T13:54:08.660Z,42.50
2023-02-17T13:56:42.339Z,57.00
2023-02-17T13:59:18.842Z,46.60
2023-02-17T14:01:51.524Z,45.00
2023-02-17T14:04:27.481Z,39.20
2023-02-17T14:07:04.444Z,49.50
2023-02-17T14:09:37.381Z,45.00
2023-02-17T14:12:20.645Z,43.70
2023-02-17T14:14:53.156Z,41.20
2023-02-17T14:17:33.656Z,38.30
2023-02-17T14:20:06.926Z,37.50
2023-02-17T14:22:39.284Z,39.30
2023-02-17T14:25:17.125Z,37.70
2023-02-17T14:27:51.304Z,38.60
2023-02-17T14:30:34.546Z,34.90
2023-02-17T14:33:09.560Z,30.60
2023-02-17T14:36:15.570Z,33.40
2023-02-17T14:38:55.728Z,32.40
2023-02-17T14:41:28.578Z,31.00
2023-02-17T14:44:01.106Z,35.70
2023-02-17T14:46:35.050Z,30.10
2023-02-17T14:49:07.437Z,33.20
2023-02-17T14:51:40.675Z,32.80
2023-02-17T14:54:16.786Z,32.50
2023-02-17T14:56:56.380Z,27.20
2023-02-17T14:59:28.492Z,37.40
2023-02-17T15:02:01.089Z,33.30
2023-02-17T15:04:33.350Z,35.20
2023-02-17T15:07:08.367Z,32.00
2023-02-17T15:09:46.753Z,29.50
2023-02-17T15:12:21.293Z,36.10
2023-02-17T15:14:53.499Z,32.60
2023-02-17T15:17:25.761Z,35.10
2023-02-17T15:19:58.048Z,36.00
2023-02-17T15:22:30.243Z,35.80
2023-02-17T15:25:02.642Z,40.00
2023-02-17T15:27:35.537Z,34.30
2023-02-17T15:30:11.643Z,34.60
2023-02-17T15:32:48.040Z,59.00
2023-02-17T15:35:23.329Z,36.00
2023-02-17T15:37:56.530Z,35.00
2023-02-17T15:40:30.676Z,40.10
2023-02-17T15:43:03.519Z,36.80
2023-02-17T15:45:36.197Z,44.30
2023-02-17T15:48:13.790Z,34.30
2023-02-17T15:50:46.138Z,38.40
2023-02-17T15:53:18.596Z,34.70
2023-02-17T15:55:52.129Z,34.00
2023-02-17T15:58:25.758Z,39.70
2023-02-17T16:01:01.757Z,41.80
2023-02-17T16:03:34.839Z,39.60
2023-02-17T16:06:08.586Z,38.50
2023-02-17T16:08:43.414Z,45.80
2023-02-17T16:11:17.686Z,41.20
2023-02-17T16:13:52.338Z,39.00
2023-02-17T16:16:28.793Z,33.00
2023-02-17T16:19:01.347Z,39.30
2023-02-17T16:21:33.837Z,35.20
2023-02-17T16:24:07.043Z,40.10
2023-02-17T16:26:41.537Z,37.10
2023-02-17T16:29:19.036Z,43.00
2023-02-17T16:31:52.465Z,38.90
2023-02-17T16:34:26.025Z,37.40
2023-02-17T16:37:01.731Z,47.20
2023-02-17T16:39:34.021Z,41.20
2023-02-17T16:42:06.626Z,39.20
2023-02-17T16:44:39.080Z,35.80
2023-02-17T16:47:21.098Z,38.00
2023-02-17T16:49:58.887Z,42.60
2023-02-17T16:52:31.433Z,38.80
2023-02-17T16:55:03.716Z,40.00
2023-02-17T16:57:36.516Z,38.20
2023-02-17T17:00:12.132Z,41.40
2023-02-17T17:02:45.158Z,38.40
2023-02-17T17:05:22.224Z,37.30
2023-02-17T17:07:55.022Z,44.70
2023-02-17T17:10:30.838Z,43.80
2023-02-17T17:13:03.545Z,42.20
2023-02-17T17:15:38.765Z,40.80
2023-02-17T17:18:21.475Z,37.80
2023-02-17T17:20:55.653Z,40.90
2023-02-17T17:23:29.486Z,41.80
2023-02-17T17:26:01.914Z,42.40
2023-02-17T17:28:34.732Z,37.70
2023-02-17T17:31:07.838Z,37.40
2023-02-17T17:33:40.021Z,37.60
2023-02-17T17:36:21.029Z,39.20
2023-02-17T17:38:53.885Z,42.60
2023-02-17T17:41:28.151Z,45.70
2023-02-17T17:44:01.304Z,56.90
2023-02-17T17:46:36.062Z,54.20
2023-02-17T17:49:10.507Z,40.00
2023-02-17T17:51:43.193Z,41.40
2023-02-17T17:54:15.493Z,41.30
2023-02-17T17:56:48.155Z,33.10
2023-02-17T17:59:20.577Z,35.70
2023-02-17T18:01:52.868Z,35.50
2023-02-17T18:04:25.306Z,79.30
2023-02-17T18:07:02.052Z,86.10
2023-02-17T18:09:39.486Z,82.90
2023-02-17T18:12:13.703Z,35.70
2023-02-17T18:14:49.218Z,35.10
2023-02-17T18:17:22.582Z,30.10
2023-02-17T18:19:56.515Z,37.00
2023-02-17T18:22:28.979Z,39.90
2023-02-17T18:25:01.817Z,39.40
2023-02-17T18:27:40.241Z,29.90
2023-02-17T18:30:16.683Z,39.00
2023-02-17T18:32:51.633Z,30.70
2023-02-17T18:35:26.068Z,32.50
2023-02-17T18:37:58.349Z,66.20
2023-02-17T18:40:30.626Z,33.40
2023-02-17T18:43:02.924Z,33.80
2023-02-17T18:45:35.310Z,35.60
2023-02-17T18:48:07.881Z,33.10
2023-02-17T18:50:40.423Z,29.50
2023-02-17T18:53:13.172Z,32.70
2023-02-17T18:55:45.416Z,27.30
2023-02-17T18:58:18.296Z,34.00
2023-02-17T19:00:50.563Z,26.70
2023-02-17T19:03:23.644Z,29.60
2023-02-17T19:05:55.914Z,30.90
2023-02-17T19:08:29.189Z,36.00
2023-02-17T19:11:01.419Z,34.10
2023-02-17T19:13:33.720Z,32.00
2023-02-17T19:16:11.221Z,28.60
2023-02-17T19:18:44.821Z,30.00
2023-02-17T19:21:18.299Z,27.60
2023-02-17T19:23:50.692Z,28.60
2023-02-17T19:26:23.715Z,36.30
2023-02-17T19:28:56.381Z,26.00
2023-02-17T19:31:29.541Z,23.70
2023-02-17T19:34:01.894Z,29.70
2023-02-17T19:36:34.377Z,24.60
2023-02-17T19:39:09.845Z,31.90
2023-02-17T19:41:42.731Z,24.90
2023-02-17T19:44:17.968Z,37.40
2023-02-17T19:46:50.683Z,33.30
2023-02-17T19:49:26.420Z,39.00
2023-02-17T19:51:58.746Z,24.00
2023-02-17T19:54:31.135Z,26.50
2023-02-17T19:57:03.690Z,28.20
2023-02-17T19:59:36.478Z,24.40
2023-02-17T20:02:11.062Z,26.90
2023-02-17T20:04:43.509Z,31.80
2023-02-17T20:07:15.908Z,28.10
2023-02-17T20:09:48.220Z,25.60
2023-02-17T20:12:21.752Z,29.50
2023-02-17T20:14:54.955Z,25.80
2023-02-17T20:17:27.530Z,24.20
2023-02-17T20:20:00.010Z,20.20
2023-02-17T20:22:32.432Z,24.00
2023-02-17T20:25:05.549Z,26.00
2023-02-17T20:27:39.153Z,26.60
2023-02-17T20:30:13.542Z,23.50
2023-02-17T20:32:55.029Z,23.80
2023-02-17T20:35:28.621Z,26.50
2023-02-17T20:38:02.925Z,24.30
2023-02-17T20:40:36.640Z,27.10
2023-02-17T20:43:12.327Z,22.50
2023-02-17T20:45:46.941Z,25.40
2023-02-17T20:48:19.898Z,23.60
2023-02-17T20:50:52.141Z,27.00
2023-02-17T20:53:24.920Z,27.90
2023-02-17T20:55:59.179Z,20.30
2023-02-17T20:58:34.004Z,23.20
2023-02-17T21:01:08.014Z,19.10
2023-02-17T21:03:40.421Z,19.80
2023-02-17T21:06:22.589Z,22.50
2023-02-17T21:08:58.318Z,21.30
2023-02-17T21:11:31.343Z,21.60
2023-02-17T21:14:03.649Z,21.30
2023-02-17T21:16:36.140Z,19.10
2023-02-17T21:19:09.225Z,14.20
2023-02-17T21:21:42.037Z,18.30
2023-02-17T21:24:15.316Z,19.90
2023-02-17T21:26:47.482Z,18.00
2023-02-17T21:29:19.849Z,15.60
2023-02-17T21:31:53.594Z,14.80
2023-02-17T21:34:26.082Z,13.20
2023-02-17T21:36:58.279Z,14.00
2023-02-17T21:39:30.602Z,13.30
2023-02-17T21:42:02.856Z,17.30
2023-02-17T21:44:53.329Z,14.60
2023-02-17T21:47:25.641Z,15.40
2023-02-17T21:50:00.285Z,19.80
2023-02-17T21:52:32.890Z,23.60
2023-02-17T21:55:05.248Z,20.70
2023-02-17T21:57:40.734Z,16.80
2023-02-17T22:00:15.336Z,12.90
2023-02-17T22:02:48.003Z,11.20
2023-02-17T22:05:20.458Z,10.20
2023-02-17T22:07:55.246Z,12.30
2023-02-17T22:10:27.619Z,11.50
2023-02-17T22:13:01.276Z,11.10
2023-02-17T22:15:33.925Z,10.70
2023-02-17T22:18:09.004Z,7.90
2023-02-17T22:20:47.027Z,9.60
2023-02-17T22:23:21.423Z,10.20
2023-02-17T22:25:53.661Z,10.10
2023-02-17T22:28:26.140Z,14.60
2023-02-17T22:30:58.665Z,15.70
2023-02-17T22:33:32.995Z,12.50
2023-02-17T22:36:08.678Z,12.00
2023-02-17T22:38:41.146Z,9.80
2023-02-17T22:41:15.294Z,18.20
2023-02-17T22:43:48.857Z,17.60
2023-02-17T22:46:27.363Z,13.60
2023-02-17T22:49:00.132Z,13.10
2023-02-17T22:51:39.070Z,11.00
2023-02-17T22:54:11.542Z,10.30
2023-02-17T22:56:43.798Z,9.90
2023-02-17T22:59:16.033Z,14.00
2023-02-17T23:01:48.291Z,13.40
2023-02-17T23:04:21.073Z,16.00
2023-02-17T23:06:53.843Z,11.30
2023-02-17T23:09:26.106Z,10.60
2023-02-17T23:11:59.649Z,10.00
2023-02-17T23:14:36.053Z,10.40
2023-02-17T23:17:11.126Z,10.70
2023-02-17T23:19:44.043Z,16.90
2023-02-17T23:22:19.221Z,14.10
2023-02-17T23:24:52.909Z,11.40
2023-02-17T23:27:25.293Z,12.60
2023-02-17T23:29:57.571Z,12.90
2023-02-17T23:32:30.186Z,12.90
2023-02-17T23:35:02.429Z,20.10
2023-02-17T23:37:34.947Z,14.50
2023-02-17T23:40:09.876Z,12.50
2023-02-17T23:42:42.335Z,9.80
2023-02-17T23:45:15.121Z,8.70
2023-02-17T23:47:49.721Z,7.30
2023-02-17T23:50:22.645Z,7.70
2023-02-17T23:52:55.094Z,10.00
2023-02-17T23:55:27.366Z,7.60
2023-02-17T23:58:00.795Z,9.00
